createdAt,value
2018-01-11T00:02:10.657Z,0.50
2018-01-11T00:04:38.292Z,0.50
2018-01-11T00:07:06.658Z,0.60
2018-01-11T00:09:34.297Z,0.50
2018-01-11T00:12:01.951Z,0.60
2018-01-11T00:14:29.547Z,0.60
2018-01-11T00:16:57.183Z,0.70
2018-01-11T00:19:24.767Z,0.80
2018-01-11T00:21:52.365Z,0.90
2018-01-11T00:24:20.783Z,0.90
2018-01-11T00:26:48.421Z,0.90
2018-01-11T00:29:16.769Z,1.00
2018-01-11T00:31:44.387Z,1.00
2018-01-11T00:34:12.002Z,1.00
2018-01-11T00:36:39.617Z,1.00
2018-01-11T00:39:07.200Z,1.10
2018-01-11T00:41:34.823Z,1.10
2018-01-11T00:44:03.199Z,1.30
2018-01-11T00:46:30.816Z,1.30
2018-01-11T00:48:58.448Z,1.30
2018-01-11T00:51:26.070Z,1.30
2018-01-11T00:53:53.681Z,1.30
2018-01-11T00:56:22.082Z,1.10
2018-01-11T00:58:49.679Z,1.10
2018-01-11T01:01:18.318Z,1.10
2018-01-11T01:03:45.928Z,1.10
2018-01-11T01:06:13.548Z,1.00
2018-01-11T01:08:41.145Z,1.00
2018-01-11T01:11:08.747Z,1.00
2018-01-11T01:13:36.373Z,0.90
2018-01-11T01:16:03.979Z,0.90
2018-01-11T01:18:31.606Z,0.90
2018-01-11T01:21:00.198Z,0.90
2018-01-11T01:23:27.798Z,0.90
2018-01-11T01:25:55.410Z,0.80
2018-01-11T01:28:23.062Z,0.80
2018-01-11T01:30:51.428Z,0.70
2018-01-11T01:33:19.044Z,0.70
2018-01-11T01:35:46.662Z,0.70
2018-01-11T01:38:14.291Z,0.60
2018-01-11T01:40:41.905Z,0.60
2018-01-11T01:43:10.300Z,0.60
2018-01-11T01:45:38.710Z,0.60
2018-01-11T01:48:06.315Z,0.60
2018-01-11T01:50:33.918Z,0.60
2018-01-11T01:53:02.300Z,0.60
2018-01-11T01:55:30.666Z,0.60
2018-01-11T01:57:59.062Z,0.60
2018-01-11T02:00:27.427Z,0.70
2018-01-11T02:02:56.038Z,0.60
2018-01-11T02:05:23.654Z,0.70
2018-01-11T02:07:51.293Z,0.60
2018-01-11T02:10:19.677Z,0.60
2018-01-11T02:12:47.432Z,0.60
2018-01-11T02:15:15.040Z,0.70
2018-01-11T02:17:42.702Z,0.70
2018-01-11T02:20:10.347Z,0.80
2018-01-11T02:22:37.958Z,0.80
2018-01-11T02:25:05.577Z,0.90
2018-01-11T02:27:33.212Z,0.80
2018-01-11T02:30:00.834Z,0.80
2018-01-11T02:32:28.431Z,0.80
2018-01-11T02:34:56.068Z,0.80
2018-01-11T02:37:23.685Z,0.80
2018-01-11T02:39:51.274Z,0.90
2018-01-11T02:42:18.897Z,0.90
2018-01-11T02:44:47.268Z,0.80
2018-01-11T02:47:14.859Z,0.80
2018-01-11T02:49:42.498Z,0.70
2018-01-11T02:52:10.110Z,0.70
2018-01-11T02:54:37.754Z,0.70
2018-01-11T02:57:06.145Z,0.70
2018-01-11T02:59:33.747Z,0.70
2018-01-11T03:02:01.347Z,0.70
2018-01-11T03:04:28.950Z,0.70
2018-01-11T03:06:56.535Z,0.70
2018-01-11T03:09:24.124Z,0.60
2018-01-11T03:11:51.731Z,0.60
2018-01-11T03:14:20.136Z,0.70
2018-01-11T03:16:47.754Z,0.70
2018-01-11T03:19:15.351Z,0.70
2018-01-11T03:21:43.727Z,0.60
2018-01-11T03:24:12.132Z,0.50
2018-01-11T03:26:39.947Z,0.50
2018-01-11T03:29:08.585Z,0.40
2018-01-11T03:31:36.172Z,0.40
2018-01-11T03:34:03.753Z,0.50
2018-01-11T03:36:31.362Z,0.50
2018-01-11T03:38:58.988Z,0.40
2018-01-11T03:41:26.646Z,0.50
2018-01-11T03:43:54.279Z,0.40
2018-01-11T03:46:22.908Z,0.40
2018-01-11T03:48:50.534Z,0.30
2018-01-11T03:51:18.138Z,0.30
2018-01-11T03:53:46.740Z,0.30
2018-01-11T03:56:14.350Z,0.20
2018-01-11T03:58:42.745Z,0.20
2018-01-11T04:01:10.368Z,0.10
2018-01-11T04:03:37.964Z,0.20
2018-01-11T04:06:06.329Z,-0.10
2018-01-11T04:08:33.949Z,-0.10
2018-01-11T04:11:01.589Z,-0.10
2018-01-11T04:13:29.206Z,-0.20
2018-01-11T04:15:56.821Z,-0.30
2018-01-11T04:18:24.413Z,-0.40
2018-01-11T04:20:52.080Z,-0.50
2018-01-11T04:23:19.708Z,-0.50
2018-01-11T04:25:48.080Z,-0.50
2018-01-11T04:28:16.477Z,-0.40
2018-01-11T04:30:44.855Z,-0.50
2018-01-11T04:33:13.212Z,-0.60
2018-01-11T04:35:40.817Z,-0.60
2018-01-11T04:38:08.452Z,-0.60
2018-01-11T04:40:36.088Z,-0.60
2018-01-11T04:43:03.695Z,-0.60
2018-01-11T04:45:32.103Z,-0.40
2018-01-11T04:47:59.699Z,-0.40
2018-01-11T04:50:27.287Z,-0.30
2018-01-11T04:52:54.909Z,-0.30
2018-01-11T04:55:22.560Z,-0.20
2018-01-11T04:57:50.162Z,-0.20
2018-01-11T05:00:17.789Z,-0.10
2018-01-11T05:02:46.163Z,-0.10
2018-01-11T05:05:14.554Z,0.10
2018-01-11T05:07:42.207Z,0.10
2018-01-11T05:10:10.592Z,0.20
2018-01-11T05:12:39.026Z,0.20
2018-01-11T05:15:06.677Z,0.10
2018-01-11T05:17:34.293Z,0.10
2018-01-11T05:20:01.922Z,0.10
2018-01-11T05:22:29.546Z,-0.10
2018-01-11T05:24:57.911Z,-0.20
2018-01-11T05:27:25.505Z,-0.20
2018-01-11T05:29:53.164Z,-0.20
2018-01-11T05:32:21.622Z,-0.10
2018-01-11T05:34:49.240Z,-0.10
2018-01-11T05:37:16.908Z,0.00
2018-01-11T05:39:44.540Z,-0.10
2018-01-11T05:42:12.917Z,0.00
2018-01-11T05:44:41.327Z,0.00
2018-01-11T05:47:08.935Z,0.10
2018-01-11T05:49:36.550Z,0.10
2018-01-11T05:52:04.940Z,0.00
2018-01-11T05:54:32.584Z,0.00
2018-01-11T05:57:00.983Z,0.10
2018-01-11T05:59:28.630Z,0.10
2018-01-11T06:01:56.236Z,0.10
2018-01-11T06:04:23.892Z,0.10
2018-01-11T06:06:51.506Z,0.20
2018-01-11T06:09:19.134Z,0.30
2018-01-11T06:11:46.756Z,0.30
2018-01-11T06:14:14.334Z,0.30
2018-01-11T06:16:43.085Z,0.30
2018-01-11T06:19:10.907Z,0.30
2018-01-11T06:21:38.557Z,0.30
2018-01-11T06:24:06.922Z,0.30
2018-01-11T06:26:35.444Z,0.30
2018-01-11T06:29:03.717Z,0.30
2018-01-11T06:31:31.380Z,0.30
2018-01-11T06:34:01.201Z,0.30
2018-01-11T06:36:31.153Z,0.20
2018-01-11T06:39:11.345Z,0.30
2018-01-11T06:41:40.724Z,0.40
2018-01-11T06:44:11.136Z,0.30
2018-01-11T06:46:40.038Z,0.30
2018-01-11T06:49:07.865Z,0.20
2018-01-11T06:51:39.948Z,0.20
2018-01-11T06:54:09.448Z,0.20
2018-01-11T06:56:40.323Z,0.10
2018-01-11T06:59:08.205Z,0.10
2018-01-11T07:01:35.970Z,0.10
2018-01-11T07:04:03.697Z,0.10
2018-01-11T07:06:31.314Z,0.10
2018-01-11T07:08:59.094Z,0.10
2018-01-11T07:11:26.868Z,0.20
2018-01-11T07:13:55.263Z,0.40
2018-01-11T07:16:22.878Z,0.40
2018-01-11T07:18:51.513Z,0.50
2018-01-11T07:21:19.120Z,0.50
2018-01-11T07:23:46.769Z,0.60
2018-01-11T07:26:15.268Z,0.60
2018-01-11T07:28:42.910Z,0.60
2018-01-11T07:31:10.809Z,0.50
2018-01-11T07:33:38.739Z,0.60
2018-01-11T07:36:07.479Z,0.60
2018-01-11T07:38:35.441Z,0.70
2018-01-11T07:41:03.354Z,0.70
2018-01-11T07:43:31.364Z,0.80
2018-01-11T07:45:59.296Z,0.80
2018-01-11T07:48:27.041Z,0.90
2018-01-11T07:50:54.667Z,0.90
2018-01-11T07:53:22.287Z,1.00
2018-01-11T07:55:49.946Z,1.10
2018-01-11T07:58:17.568Z,1.10
2018-01-11T08:00:45.183Z,1.10
2018-01-11T08:03:12.780Z,1.10
2018-01-11T08:05:40.432Z,1.20
2018-01-11T08:08:08.033Z,1.10
2018-01-11T08:10:35.632Z,1.10
2018-01-11T08:13:03.257Z,1.20
2018-01-11T08:15:30.889Z,1.30
2018-01-11T08:17:58.517Z,1.30
2018-01-11T08:20:27.623Z,1.40
2018-01-11T08:22:55.995Z,1.50
2018-01-11T08:25:24.357Z,1.50
2018-01-11T08:27:51.955Z,1.50
2018-01-11T08:30:21.348Z,1.60
2018-01-11T08:32:49.710Z,1.80
2018-01-11T08:35:17.354Z,1.80
2018-01-11T08:37:45.027Z,1.90
2018-01-11T08:40:12.934Z,1.90
2018-01-11T08:42:41.313Z,2.00
2018-01-11T08:45:09.668Z,2.20
2018-01-11T08:47:37.284Z,2.20
2018-01-11T08:50:05.665Z,2.50
2018-01-11T08:52:35.112Z,2.60
2018-01-11T08:55:02.718Z,2.50
2018-01-11T08:57:30.329Z,2.60
2018-01-11T08:59:58.912Z,2.80
2018-01-11T09:02:26.546Z,3.00
2018-01-11T09:04:54.929Z,3.70
2018-01-11T09:07:23.335Z,4.00
2018-01-11T09:09:50.917Z,4.00
2018-01-11T09:12:18.550Z,4.30
2018-01-11T09:14:46.941Z,4.80
2018-01-11T09:17:14.555Z,4.80
2018-01-11T09:19:42.249Z,5.20
2018-01-11T09:22:09.815Z,5.50
2018-01-11T09:24:37.458Z,5.70
2018-01-11T09:27:05.046Z,5.80
2018-01-11T09:29:32.688Z,6.00
2018-01-11T09:32:00.277Z,6.00
2018-01-11T09:34:27.887Z,6.30
2018-01-11T09:36:55.554Z,6.50
2018-01-11T09:39:23.160Z,6.80
2018-01-11T09:41:50.776Z,7.10
2018-01-11T09:44:18.370Z,7.30
2018-01-11T09:46:45.965Z,7.40
2018-01-11T09:49:13.591Z,7.30
2018-01-11T09:51:41.218Z,7.10
2018-01-11T09:54:08.812Z,7.10
2018-01-11T09:56:36.421Z,7.10
2018-01-11T09:59:04.060Z,7.10
2018-01-11T10:01:31.657Z,7.00
2018-01-11T10:03:59.301Z,6.80
2018-01-11T10:06:26.886Z,6.90
2018-01-11T10:08:54.543Z,6.90
2018-01-11T10:11:22.226Z,6.80
2018-01-11T10:13:49.857Z,6.80
2018-01-11T10:16:17.511Z,6.80
2018-01-11T10:18:45.107Z,7.00
2018-01-11T10:21:12.760Z,7.10
2018-01-11T10:23:40.352Z,7.00
2018-01-11T10:26:07.980Z,6.80
2018-01-11T10:28:35.612Z,6.80
2018-01-11T10:31:03.988Z,6.70
2018-01-11T10:33:32.378Z,6.70
2018-01-11T10:36:02.039Z,6.60
2018-01-11T10:38:29.623Z,6.60
2018-01-11T10:40:57.249Z,6.50
2018-01-11T10:43:24.869Z,6.50
2018-01-11T10:45:52.484Z,6.40
2018-01-11T10:48:20.109Z,6.30
2018-01-11T10:50:48.503Z,6.10
2018-01-11T10:53:16.873Z,5.90
2018-01-11T10:55:44.617Z,5.90
2018-01-11T10:58:12.249Z,5.80
2018-01-11T11:00:45.447Z,5.90
2018-01-11T11:03:13.223Z,5.90
2018-01-11T11:05:41.563Z,6.10
2018-01-11T11:08:09.931Z,6.20
2018-01-11T11:10:37.568Z,6.20
2018-01-11T11:13:05.202Z,6.30
2018-01-11T11:15:32.831Z,6.30
2018-01-11T11:18:00.453Z,6.30
2018-01-11T11:20:28.091Z,6.40
2018-01-11T11:22:56.469Z,7.00
2018-01-11T11:25:25.694Z,7.30
2018-01-11T11:27:53.359Z,7.20
2018-01-11T11:30:20.967Z,7.50
2018-01-11T11:32:48.624Z,7.70
2018-01-11T11:35:16.211Z,7.90
2018-01-11T11:37:44.127Z,8.00
2018-01-11T11:40:11.721Z,8.00
2018-01-11T11:42:39.330Z,7.90
2018-01-11T11:45:07.710Z,8.00
2018-01-11T11:47:35.336Z,7.90
2018-01-11T11:50:03.009Z,7.90
2018-01-11T11:52:30.635Z,8.00
2018-01-11T11:54:58.257Z,8.10
2018-01-11T11:57:25.849Z,8.00
2018-01-11T11:59:54.242Z,7.80
2018-01-11T12:02:22.627Z,7.60
2018-01-11T12:04:51.029Z,7.40
2018-01-11T12:07:18.652Z,7.40
2018-01-11T12:09:46.256Z,7.30
2018-01-11T12:12:13.913Z,7.30
2018-01-11T12:14:41.546Z,7.20
2018-01-11T12:17:09.192Z,7.60
2018-01-11T12:19:36.798Z,7.90
2018-01-11T12:22:05.173Z,8.20
2018-01-11T12:24:32.796Z,8.20
2018-01-11T12:27:00.439Z,8.60
2018-01-11T12:29:28.033Z,9.40
2018-01-11T12:31:55.729Z,10.20
2018-01-11T12:34:23.348Z,10.80
2018-01-11T12:36:51.005Z,10.40
2018-01-11T12:39:18.640Z,10.50
2018-01-11T12:41:47.010Z,10.80
2018-01-11T12:44:14.628Z,10.80
2018-01-11T12:46:42.223Z,10.80
2018-01-11T12:49:09.834Z,9.90
2018-01-11T12:51:38.239Z,8.80
2018-01-11T12:54:05.885Z,8.70
2018-01-11T12:56:34.266Z,7.60
2018-01-11T12:59:02.628Z,7.10
2018-01-11T13:01:30.242Z,7.10
2018-01-11T13:03:57.857Z,6.90
2018-01-11T13:06:25.476Z,6.80
2018-01-11T13:08:53.110Z,6.80
2018-01-11T13:11:21.490Z,6.90
2018-01-11T13:13:49.887Z,6.80
2018-01-11T13:16:18.232Z,7.00
2018-01-11T13:18:45.873Z,7.00
2018-01-11T13:21:13.913Z,7.40
2018-01-11T13:23:41.629Z,7.70
2018-01-11T13:26:09.256Z,8.00
2018-01-11T13:28:36.914Z,8.00
2018-01-11T13:31:05.279Z,7.80
2018-01-11T13:33:33.664Z,7.80
2018-01-11T13:36:02.064Z,7.70
2018-01-11T13:38:29.673Z,7.70
2018-01-11T13:40:57.289Z,7.40
2018-01-11T13:43:25.675Z,7.20
2018-01-11T13:45:53.322Z,7.20
2018-01-11T13:48:20.936Z,7.00
2018-01-11T13:50:48.541Z,6.90
2018-01-11T13:53:16.180Z,6.70
2018-01-11T13:55:43.840Z,6.80
2018-01-11T13:58:11.483Z,6.70
2018-01-11T14:00:39.395Z,6.50
2018-01-11T14:03:07.282Z,6.20
2018-01-11T14:05:35.867Z,6.00
2018-01-11T14:08:03.638Z,6.00
2018-01-11T14:10:31.475Z,5.80
2018-01-11T14:12:59.444Z,5.70
2018-01-11T14:15:27.078Z,5.60
2018-01-11T14:17:54.732Z,5.70
2018-01-11T14:20:22.355Z,5.70
2018-01-11T14:22:49.978Z,5.70
2018-01-11T14:25:18.391Z,5.50
2018-01-11T14:27:45.996Z,5.50
2018-01-11T14:30:13.613Z,5.50
2018-01-11T14:32:41.249Z,5.40
2018-01-11T14:35:09.646Z,5.50
2018-01-11T14:37:38.002Z,5.50
2018-01-11T14:40:06.401Z,5.40
2018-01-11T14:42:34.018Z,5.40
2018-01-11T14:45:01.948Z,5.30
2018-01-11T14:47:29.634Z,5.20
2018-01-11T14:49:57.309Z,5.10
2018-01-11T14:52:25.054Z,5.00
2018-01-11T14:54:55.324Z,5.00
2018-01-11T14:57:24.954Z,4.90
2018-01-11T14:59:53.655Z,4.80
2018-01-11T15:02:22.385Z,4.70
2018-01-11T15:04:50.024Z,4.50
2018-01-11T15:07:18.470Z,4.30
2018-01-11T15:09:52.089Z,4.20
2018-01-11T15:12:21.890Z,4.10
2018-01-11T15:14:50.949Z,4.10
2018-01-11T15:17:23.507Z,4.10
2018-01-11T15:19:51.865Z,4.00
2018-01-11T15:22:21.405Z,3.90
2018-01-11T15:24:50.546Z,3.90
2018-01-11T15:27:24.464Z,3.90
2018-01-11T15:29:54.984Z,3.90
2018-01-11T15:32:23.278Z,3.90
2018-01-11T15:34:53.635Z,3.90
2018-01-11T15:37:23.900Z,4.00
2018-01-11T15:39:55.589Z,3.90
2018-01-11T15:42:25.516Z,3.90
2018-01-11T15:44:55.550Z,4.00
2018-01-11T15:47:23.528Z,4.00
2018-01-11T15:49:51.617Z,3.90
2018-01-11T15:52:21.723Z,3.90
2018-01-11T15:54:52.160Z,3.80
2018-01-11T15:57:21.044Z,3.80
2018-01-11T15:59:54.731Z,3.80
2018-01-11T16:02:24.382Z,3.60
2018-01-11T16:04:54.681Z,3.40
2018-01-11T16:07:25.847Z,3.30
2018-01-11T16:09:59.074Z,3.20
2018-01-11T16:12:26.949Z,3.40
2018-01-11T16:14:54.644Z,3.40
2018-01-11T16:17:26.926Z,3.40
2018-01-11T16:19:56.503Z,3.40
2018-01-11T16:22:24.458Z,3.30
2018-01-11T16:24:53.844Z,3.40
2018-01-11T16:27:23.040Z,3.50
2018-01-11T16:29:51.102Z,3.40
2018-01-11T16:32:20.693Z,3.40
2018-01-11T16:34:48.456Z,3.40
2018-01-11T16:37:16.078Z,3.40
2018-01-11T16:39:43.715Z,3.40
2018-01-11T16:42:12.186Z,3.40
2018-01-11T16:44:39.906Z,3.40
2018-01-11T16:47:08.710Z,3.50
2018-01-11T16:49:37.078Z,3.50
2018-01-11T16:52:11.610Z,3.40
2018-01-11T16:54:39.378Z,3.40
2018-01-11T16:57:07.973Z,3.20
2018-01-11T16:59:36.345Z,3.10
2018-01-11T17:02:04.734Z,3.10
2018-01-11T17:04:33.530Z,3.10
2018-01-11T17:07:01.885Z,3.00
2018-01-11T17:09:29.524Z,3.00
2018-01-11T17:11:57.137Z,3.00
2018-01-11T17:14:26.677Z,3.20
2018-01-11T17:16:54.297Z,3.10
2018-01-11T17:19:23.001Z,3.00
2018-01-11T17:21:51.444Z,3.00
2018-01-11T17:24:19.042Z,3.00
2018-01-11T17:26:46.806Z,2.90
2018-01-11T17:29:14.428Z,2.80
2018-01-11T17:31:43.074Z,2.80
2018-01-11T17:34:11.790Z,2.80
2018-01-11T17:36:39.448Z,2.80
2018-01-11T17:39:07.822Z,2.80
2018-01-11T17:41:36.211Z,2.80
2018-01-11T17:44:04.586Z,2.80
2018-01-11T17:46:32.258Z,2.80
2018-01-11T17:49:01.277Z,2.80
2018-01-11T17:51:28.892Z,2.90
2018-01-11T17:53:56.535Z,2.90
2018-01-11T17:56:24.152Z,2.90
2018-01-11T17:58:52.542Z,3.00
2018-01-11T18:01:20.948Z,3.00
2018-01-11T18:03:48.636Z,3.00
2018-01-11T18:06:16.290Z,3.00
2018-01-11T18:08:43.920Z,3.00
2018-01-11T18:11:11.608Z,3.10
2018-01-11T18:13:40.188Z,3.00
2018-01-11T18:16:08.071Z,2.90
2018-01-11T18:18:36.526Z,2.80
2018-01-11T18:21:04.478Z,2.90
2018-01-11T18:23:32.293Z,2.90
2018-01-11T18:26:00.762Z,2.90
2018-01-11T18:28:29.146Z,3.00
2018-01-11T18:30:57.548Z,2.90
2018-01-11T18:33:25.252Z,2.90
2018-01-11T18:35:52.867Z,2.80
2018-01-11T18:38:21.276Z,2.90
2018-01-11T18:40:48.875Z,2.90
2018-01-11T18:43:16.507Z,2.90
2018-01-11T18:45:44.126Z,2.90
2018-01-11T18:48:11.746Z,2.90
2018-01-11T18:50:40.376Z,2.80
2018-01-11T18:53:07.991Z,2.80
2018-01-11T18:55:35.643Z,2.90
2018-01-11T18:58:04.034Z,3.00
2018-01-11T19:00:31.664Z,3.00
2018-01-11T19:02:59.599Z,2.90
2018-01-11T19:05:27.242Z,2.90
2018-01-11T19:07:54.875Z,2.80
2018-01-11T19:10:22.486Z,2.80
2018-01-11T19:12:50.338Z,2.70
2018-01-11T19:15:17.942Z,2.70
2018-01-11T19:17:45.593Z,2.70
2018-01-11T19:20:13.340Z,2.70
2018-01-11T19:22:41.296Z,2.70
2018-01-11T19:25:08.922Z,2.70
2018-01-11T19:27:36.551Z,2.70
2018-01-11T19:30:04.380Z,2.50
2018-01-11T19:32:32.012Z,2.50
2018-01-11T19:34:59.692Z,2.50
2018-01-11T19:37:27.299Z,2.40
2018-01-11T19:39:54.954Z,2.50
2018-01-11T19:42:22.595Z,2.60
2018-01-11T19:44:50.661Z,2.60
2018-01-11T19:47:18.297Z,2.60
2018-01-11T19:49:45.962Z,2.50
2018-01-11T19:52:14.762Z,2.50
2018-01-11T19:54:42.392Z,2.50
2018-01-11T19:57:10.023Z,2.40
2018-01-11T19:59:37.632Z,2.20
2018-01-11T20:02:07.322Z,2.10
2018-01-11T20:04:34.944Z,2.10
2018-01-11T20:07:02.588Z,2.20
2018-01-11T20:09:30.212Z,2.20
2018-01-11T20:11:59.302Z,2.30
2018-01-11T20:14:28.448Z,2.30
2018-01-11T20:16:59.458Z,2.40
2018-01-11T20:19:27.881Z,2.30
2018-01-11T20:21:55.539Z,2.30
2018-01-11T20:24:23.170Z,2.20
2018-01-11T20:26:50.752Z,2.20
2018-01-11T20:29:18.395Z,2.10
2018-01-11T20:31:46.397Z,2.20
2018-01-11T20:34:14.384Z,2.30
2018-01-11T20:36:42.878Z,2.30
2018-01-11T20:39:11.517Z,2.30
2018-01-11T20:41:39.112Z,2.30
2018-01-11T20:44:06.734Z,2.30
2018-01-11T20:46:34.639Z,2.30
2018-01-11T20:49:02.510Z,2.30
2018-01-11T20:51:31.161Z,2.30
2018-01-11T20:53:58.781Z,2.20
2018-01-11T20:56:26.450Z,2.20
2018-01-11T20:58:54.141Z,2.20
2018-01-11T21:01:21.867Z,2.20
2018-01-11T21:03:52.798Z,2.20
2018-01-11T21:06:20.564Z,2.20
2018-01-11T21:08:48.539Z,2.20
2018-01-11T21:11:17.913Z,2.30
2018-01-11T21:13:45.577Z,2.20
2018-01-11T21:25:58.762Z,2.00
2018-01-11T21:28:39.832Z,2.00
2018-01-11T21:38:06.841Z,2.10
2018-01-11T21:40:34.698Z,2.00
2018-01-11T21:43:02.455Z,1.80
2018-01-11T21:45:31.504Z,1.90
2018-01-11T21:47:59.836Z,1.80
2018-01-11T21:50:30.288Z,1.70
2018-01-11T21:52:58.476Z,1.80
2018-01-11T21:55:31.114Z,1.80
2018-01-11T21:57:59.079Z,1.80
2018-01-11T22:00:26.664Z,1.80
2018-01-11T22:02:55.074Z,1.90
2018-01-11T22:05:30.508Z,1.90
2018-01-11T22:08:01.158Z,1.90
2018-01-11T22:10:32.556Z,1.90
2018-01-11T22:13:00.218Z,2.00
2018-01-11T22:15:28.606Z,2.10
2018-01-11T22:17:56.972Z,2.00
2018-01-11T22:20:25.340Z,2.10
2018-01-11T22:22:52.973Z,2.10
2018-01-11T22:25:20.632Z,2.00
2018-01-11T22:27:48.260Z,1.90
2018-01-11T22:30:16.652Z,2.00
2018-01-11T22:32:45.028Z,2.10
2018-01-11T22:35:13.420Z,2.00
2018-01-11T22:37:41.795Z,2.10
2018-01-11T22:40:10.181Z,2.10
2018-01-11T22:42:38.551Z,2.10
2018-01-11T22:45:06.941Z,2.00
2018-01-11T22:47:35.436Z,1.90
2018-01-11T22:50:03.116Z,1.90
2018-01-11T22:52:30.752Z,2.00
2018-01-11T22:54:59.408Z,2.00
2018-01-11T22:57:27.069Z,2.00
2018-01-11T22:59:54.653Z,2.00
2018-01-11T23:02:22.320Z,1.90
2018-01-11T23:04:49.913Z,1.90
2018-01-11T23:07:18.265Z,2.00
2018-01-11T23:09:45.891Z,2.00
2018-01-11T23:12:13.524Z,2.10
2018-01-11T23:14:41.926Z,2.10
2018-01-11T23:17:09.510Z,2.10
2018-01-11T23:19:37.142Z,2.10
2018-01-11T23:22:05.538Z,2.20
2018-01-11T23:24:33.966Z,2.20
2018-01-11T23:27:01.599Z,2.20
2018-01-11T23:29:29.221Z,2.30
2018-01-11T23:31:56.824Z,2.30
2018-01-11T23:34:25.182Z,2.20
2018-01-11T23:36:52.778Z,2.20
2018-01-11T23:39:21.200Z,2.10
2018-01-11T23:41:48.846Z,2.10
2018-01-11T23:44:16.459Z,2.10
2018-01-11T23:46:44.094Z,2.20
2018-01-11T23:49:11.706Z,2.10
2018-01-11T23:51:39.346Z,2.20
2018-01-11T23:54:06.952Z,2.30
2018-01-11T23:56:35.324Z,2.20
2018-01-11T23:59:03.739Z,2.20
